Benton, Kansas
Current Conditions -  °F | °C
As of 1:54 AM on Friday 24 Oct 2014 (Local Time) from KAAO Reporting Station
Clear Clear  
Wind Chill: 58°   Ceiling: Unl
Heat Index: 58°   Visibility: 7mi
Dew Point: 57°   Wind: 7mph
Humidity: 97%   Direction: 160°SSE
Pressure: 30.07"   Gusts: NA
Location:  37.79°N, 97.11°W
Report Text: KAAO 240654Z AUTO 16006KT 7SM CLR 14/14 A3007 RMK AO2 SLP176 T01440139 $
Loading
Personal Weather Stations






























Interactive Weather Map
Tropical Storm Tracking
New forecast layout! Learn more

10-Day Weather Forecast

Advertisements
Track Severe Weather on mobile